createdAt,value
2016-12-12T00:00:33.953Z,1001.87
2016-12-12T00:01:33.981Z,1001.88
2016-12-12T00:02:34.012Z,1001.89
2016-12-12T00:03:34.038Z,1001.94
2016-12-12T00:04:34.068Z,1001.94
2016-12-12T00:05:34.092Z,1001.92
2016-12-12T00:06:34.126Z,1001.93
2016-12-12T00:07:34.154Z,1001.93
2016-12-12T00:08:34.183Z,1001.92
2016-12-12T00:09:34.207Z,1001.91
2016-12-12T00:10:34.236Z,1001.94
2016-12-12T00:11:34.265Z,1001.96
2016-12-12T00:12:34.290Z,1002.03
2016-12-12T00:13:34.323Z,1002.02
2016-12-12T00:14:34.351Z,1002.07
2016-12-12T00:15:34.381Z,1002.07
2016-12-12T00:16:34.406Z,1002.07
2016-12-12T00:17:34.435Z,1002.13
2016-12-12T00:18:34.462Z,1002.13
2016-12-12T00:19:34.486Z,1002.08
2016-12-12T00:20:34.516Z,1002.11
2016-12-12T00:21:34.540Z,1002.12
2016-12-12T00:22:34.570Z,1002.12
2016-12-12T00:23:34.598Z,1002.16
2016-12-12T00:24:34.634Z,1002.11
2016-12-12T00:25:34.660Z,1002.1
2016-12-12T00:26:34.684Z,1002.07
2016-12-12T00:27:34.708Z,1002.06
2016-12-12T00:28:34.738Z,1002.06
2016-12-12T00:29:34.766Z,1002.09
2016-12-12T00:30:34.799Z,1002.12
2016-12-12T00:31:34.824Z,1002.12
2016-12-12T00:32:34.849Z,1002.09
2016-12-12T00:33:34.882Z,1002.1
2016-12-12T00:34:34.907Z,1002.11
2016-12-12T00:35:34.935Z,1002.12
2016-12-12T00:36:34.964Z,1002.11
2016-12-12T00:37:34.988Z,1002.09
2016-12-12T00:38:35.018Z,1002.04
2016-12-12T00:39:35.042Z,1002.12
2016-12-12T00:40:35.071Z,1002.07
2016-12-12T00:41:35.103Z,1002.13
2016-12-12T00:42:35.133Z,1002.1
2016-12-12T00:43:35.158Z,1002.08
2016-12-12T00:44:35.187Z,1002.08
2016-12-12T00:45:35.211Z,1002.05
2016-12-12T00:46:35.243Z,1002.07
2016-12-12T00:47:35.268Z,1002.05
2016-12-12T00:48:35.300Z,1002.01
2016-12-12T00:49:35.326Z,1002.05
2016-12-12T00:50:35.355Z,1002.04
2016-12-12T00:51:35.383Z,1002.04
2016-12-12T00:52:35.412Z,1002.06
2016-12-12T00:53:35.439Z,1002.03
2016-12-12T00:54:35.461Z,1002.06
2016-12-12T00:55:35.491Z,1002.06
2016-12-12T00:56:35.519Z,1002.06
2016-12-12T00:57:35.548Z,1002.05
2016-12-12T00:58:35.577Z,1002.08
2016-12-12T00:59:35.601Z,1002.08
2016-12-12T01:00:35.630Z,1002.11
2016-12-12T01:01:35.663Z,1002.09
2016-12-12T01:02:35.692Z,1002.08
2016-12-12T01:03:35.713Z,1002.05
2016-12-12T01:04:35.741Z,1002.1
2016-12-12T01:05:35.771Z,1002.05
2016-12-12T01:06:35.799Z,1001.99
2016-12-12T01:07:35.832Z,1002.02
2016-12-12T01:08:35.853Z,1002.05
2016-12-12T01:09:35.882Z,1002.05
2016-12-12T01:10:35.915Z,1002.09
2016-12-12T01:11:35.939Z,1002.03
2016-12-12T01:12:35.965Z,1002.09
2016-12-12T01:13:35.997Z,1002.14
2016-12-12T01:14:36.017Z,1002.11
2016-12-12T01:15:36.054Z,1002.15
2016-12-12T01:16:36.079Z,1002.09
2016-12-12T01:17:36.108Z,1002.09
2016-12-12T01:18:36.132Z,1002.1
2016-12-12T01:19:36.165Z,1002.12
2016-12-12T01:20:36.190Z,1002.11
2016-12-12T01:21:36.216Z,1002.11
2016-12-12T01:22:36.249Z,1002.09
2016-12-12T01:23:36.273Z,1002.05
2016-12-12T01:24:36.304Z,1002.01
2016-12-12T01:25:36.326Z,1002.02
2016-12-12T01:26:36.354Z,1002.05
2016-12-12T01:27:36.383Z,1002.01
2016-12-12T01:28:36.412Z,1002.01
2016-12-12T01:29:36.434Z,1002.03
2016-12-12T01:30:36.467Z,1001.99
2016-12-12T01:31:36.494Z,1001.98
2016-12-12T01:32:36.527Z,1001.97
2016-12-12T01:33:36.547Z,1002.02
2016-12-12T01:34:36.581Z,1002
2016-12-12T01:35:36.610Z,1002.04
2016-12-12T01:36:36.639Z,1001.98
2016-12-12T01:37:36.663Z,1001.94
2016-12-12T01:38:36.689Z,1001.97
2016-12-12T01:39:36.715Z,1001.97
2016-12-12T01:40:36.745Z,1001.98
2016-12-12T01:41:36.774Z,1002
2016-12-12T01:42:36.799Z,1002.01
2016-12-12T01:43:36.831Z,1002.03
2016-12-12T01:44:36.860Z,1002.05
2016-12-12T01:45:36.884Z,1002.06
2016-12-12T01:46:36.914Z,1002.04
2016-12-12T01:47:36.939Z,1002.11
2016-12-12T01:48:36.966Z,1002.1
2016-12-12T01:49:36.991Z,1002.08
2016-12-12T01:50:37.024Z,1002.03
2016-12-12T01:51:37.053Z,1001.99
2016-12-12T01:52:37.077Z,1002.04
2016-12-12T01:53:37.102Z,1002.03
2016-12-12T01:54:37.135Z,1002.03
2016-12-12T01:55:37.164Z,1002.03
2016-12-12T01:56:37.188Z,1002.06
2016-12-12T01:57:37.217Z,1002.04
2016-12-12T01:58:37.246Z,1002.01
2016-12-12T01:59:37.270Z,1002.05
2016-12-12T02:00:37.296Z,1002
2016-12-12T02:01:37.325Z,1001.99
2016-12-12T02:02:37.357Z,1001.99
2016-12-12T02:03:37.378Z,1002.02
2016-12-12T02:04:37.410Z,1001.98
2016-12-12T02:05:37.435Z,1002.01
2016-12-12T02:06:37.464Z,1002.01
2016-12-12T02:07:37.496Z,1002.03
2016-12-12T02:08:37.522Z,1002.03
2016-12-12T02:09:37.550Z,1002.01
2016-12-12T02:10:37.575Z,1001.99
2016-12-12T02:11:37.604Z,1001.97
2016-12-12T02:12:37.633Z,1002.01
2016-12-12T02:13:37.657Z,1001.95
2016-12-12T02:14:37.690Z,1001.99
2016-12-12T02:15:37.711Z,1002.01
2016-12-12T02:16:37.739Z,1001.98
2016-12-12T02:17:37.768Z,1001.97
2016-12-12T02:18:37.801Z,1001.95
2016-12-12T02:19:37.817Z,1001.99
2016-12-12T02:20:37.855Z,1002
2016-12-12T02:21:37.882Z,1001.97
2016-12-12T02:22:37.904Z,1001.99
2016-12-12T02:23:37.936Z,1001.99
2016-12-12T02:24:37.961Z,1002.01
2016-12-12T02:25:37.990Z,1002.03
2016-12-12T02:26:38.020Z,1002.03
2016-12-12T02:27:38.045Z,1002.06
2016-12-12T02:28:38.075Z,1002.05
2016-12-12T02:29:38.104Z,1002.05
2016-12-12T02:30:38.129Z,1002.06
2016-12-12T02:31:38.158Z,1002.08
2016-12-12T02:32:38.179Z,1002.13
2016-12-12T02:33:38.208Z,1002.14
2016-12-12T02:34:38.240Z,1002.16
2016-12-12T02:35:38.265Z,1002.15
2016-12-12T02:36:38.294Z,1002.19
2016-12-12T02:37:38.323Z,1002.15
2016-12-12T02:38:38.347Z,1002.18
2016-12-12T02:39:38.372Z,1002.21
2016-12-12T02:40:38.405Z,1002.15
2016-12-12T02:41:38.434Z,1002.17
2016-12-12T02:42:38.454Z,1002.16
2016-12-12T02:43:38.483Z,1002.19
2016-12-12T02:44:38.516Z,1002.21
2016-12-12T02:45:38.541Z,1002.19
2016-12-12T02:46:38.570Z,1002.25
2016-12-12T02:47:38.599Z,1002.23
2016-12-12T02:48:38.618Z,1002.28
2016-12-12T02:49:38.648Z,1002.27
2016-12-12T02:50:38.680Z,1002.25
2016-12-12T02:51:38.710Z,1002.27
2016-12-12T02:52:38.734Z,1002.26
2016-12-12T02:53:38.759Z,1002.23
2016-12-12T02:54:38.791Z,1002.24
2016-12-12T02:55:38.816Z,1002.27
2016-12-12T02:56:38.840Z,1002.19
2016-12-12T02:57:38.865Z,1002.22
2016-12-12T02:58:38.895Z,1002.2
2016-12-12T02:59:38.927Z,1002.2
2016-12-12T03:00:38.956Z,1002.21
2016-12-12T03:01:38.976Z,1002.23
2016-12-12T03:02:39.009Z,1002.24
2016-12-12T03:03:39.036Z,1002.23
2016-12-12T03:04:39.058Z,1002.17
2016-12-12T03:05:39.087Z,1002.18
2016-12-12T03:06:39.116Z,1002.19
2016-12-12T03:07:39.142Z,1002.21
2016-12-12T03:08:39.175Z,1002.18
2016-12-12T03:09:39.198Z,1002.26
2016-12-12T03:10:39.231Z,1002.22
2016-12-12T03:11:39.256Z,1002.26
2016-12-12T03:12:39.280Z,1002.27
2016-12-12T03:13:39.309Z,1002.25
2016-12-12T03:14:39.333Z,1002.25
2016-12-12T03:15:39.366Z,1002.26
2016-12-12T03:16:39.393Z,1002.26
2016-12-12T03:17:39.416Z,1002.24
2016-12-12T03:18:39.449Z,1002.23
2016-12-12T03:19:39.472Z,1002.18
2016-12-12T03:20:39.507Z,1002.24
2016-12-12T03:21:39.532Z,1002.26
2016-12-12T03:22:39.556Z,1002.23
2016-12-12T03:23:39.584Z,1002.29
2016-12-12T03:24:39.609Z,1002.24
2016-12-12T03:25:39.637Z,1002.32
2016-12-12T03:26:39.670Z,1002.3
2016-12-12T03:27:39.695Z,1002.31
2016-12-12T03:28:39.724Z,1002.35
2016-12-12T03:29:39.744Z,1002.37
2016-12-12T03:30:39.774Z,1002.42
2016-12-12T03:31:39.805Z,1002.36
2016-12-12T03:32:39.826Z,1002.39
2016-12-12T03:33:39.855Z,1002.39
2016-12-12T03:34:39.884Z,1002.41
2016-12-12T03:35:39.917Z,1002.39
2016-12-12T03:36:39.942Z,1002.42
2016-12-12T03:37:39.970Z,1002.36
2016-12-12T03:38:39.994Z,1002.38
2016-12-12T03:39:40.015Z,1002.36
2016-12-12T03:40:40.048Z,1002.38
2016-12-12T03:41:40.077Z,1002.38
2016-12-12T03:42:40.110Z,1002.41
2016-12-12T03:43:40.130Z,1002.35
2016-12-12T03:44:40.159Z,1002.38
2016-12-12T03:45:40.192Z,1002.39
2016-12-12T03:46:40.217Z,1002.37
2016-12-12T03:47:40.245Z,1002.42
2016-12-12T03:48:40.270Z,1002.45
2016-12-12T03:49:40.295Z,1002.43
2016-12-12T03:50:40.327Z,1002.45
2016-12-12T03:51:40.356Z,1002.47
2016-12-12T03:52:40.652Z,1002.5
2016-12-12T03:53:40.409Z,1002.48
2016-12-12T03:54:40.430Z,1002.47
2016-12-12T03:55:40.458Z,1002.47
2016-12-12T03:56:40.487Z,1002.46
2016-12-12T03:57:40.512Z,1002.48
2016-12-12T03:58:40.540Z,1002.44
2016-12-12T03:59:40.569Z,1002.47
2016-12-12T04:00:40.602Z,1002.48
2016-12-12T04:01:40.627Z,1002.46
2016-12-12T04:02:40.655Z,1002.47
2016-12-12T04:03:40.680Z,1002.48
2016-12-12T04:04:40.704Z,1002.46
2016-12-12T04:05:40.737Z,1002.46
2016-12-12T04:06:40.767Z,1002.46
2016-12-12T04:07:40.791Z,1002.45
2016-12-12T04:08:40.816Z,1002.46
2016-12-12T04:09:40.844Z,1002.43
2016-12-12T04:10:40.869Z,1002.49
2016-12-12T04:11:40.902Z,1002.5
2016-12-12T04:12:40.922Z,1002.48
2016-12-12T04:13:40.951Z,1002.48
2016-12-12T04:14:40.979Z,1002.53
2016-12-12T04:15:41.012Z,1002.54
2016-12-12T04:16:41.033Z,1002.58
2016-12-12T04:17:41.066Z,1002.56
2016-12-12T04:18:41.095Z,1002.51
2016-12-12T04:19:41.119Z,1002.55
2016-12-12T04:20:41.143Z,1002.58
2016-12-12T04:21:41.168Z,1002.53
2016-12-12T04:22:41.197Z,1002.56
2016-12-12T04:23:41.225Z,1002.56
2016-12-12T04:24:41.250Z,1002.57
2016-12-12T04:25:41.287Z,1002.6
2016-12-12T04:26:41.311Z,1002.59
2016-12-12T04:27:41.336Z,1002.59
2016-12-12T04:28:41.365Z,1002.62
2016-12-12T04:29:41.389Z,1002.6
2016-12-12T04:30:41.414Z,1002.64
2016-12-12T04:31:41.447Z,1002.58
2016-12-12T04:32:41.471Z,1002.63
2016-12-12T04:33:41.496Z,1002.65
2016-12-12T04:34:41.530Z,1002.61
2016-12-12T04:35:41.553Z,1002.64
2016-12-12T04:36:41.582Z,1002.68
2016-12-12T04:37:41.611Z,1002.7
2016-12-12T04:38:41.632Z,1002.67
2016-12-12T04:39:41.660Z,1002.69
2016-12-12T04:40:41.688Z,1002.71
2016-12-12T04:41:41.713Z,1002.71
2016-12-12T04:42:41.746Z,1002.69
2016-12-12T04:43:41.770Z,1002.71
2016-12-12T04:44:41.803Z,1002.69
2016-12-12T04:45:41.827Z,1002.73
2016-12-12T04:46:41.857Z,1002.72
2016-12-12T04:47:41.884Z,1002.72
2016-12-12T04:48:41.905Z,1002.78
2016-12-12T04:49:41.938Z,1002.76
2016-12-12T04:50:41.958Z,1002.76
2016-12-12T04:51:41.991Z,1002.76
2016-12-12T04:52:42.015Z,1002.75
2016-12-12T04:53:42.044Z,1002.75
2016-12-12T04:54:42.072Z,1002.77
2016-12-12T04:55:42.093Z,1002.72
2016-12-12T04:56:42.121Z,1002.76
2016-12-12T04:57:42.150Z,1002.78
2016-12-12T04:58:42.182Z,1002.75
2016-12-12T04:59:42.205Z,1002.77
2016-12-12T05:00:42.231Z,1002.76
2016-12-12T05:01:42.264Z,1002.73
2016-12-12T05:02:42.284Z,1002.77
2016-12-12T05:03:42.313Z,1002.76
2016-12-12T05:04:42.338Z,1002.76
2016-12-12T05:05:42.372Z,1002.76
2016-12-12T05:06:42.396Z,1002.78
2016-12-12T05:07:42.425Z,1002.81
2016-12-12T05:08:42.449Z,1002.75
2016-12-12T05:09:42.480Z,1002.74
2016-12-12T05:10:42.503Z,1002.75
2016-12-12T05:11:42.531Z,1002.74
2016-12-12T05:12:42.564Z,1002.72
2016-12-12T05:13:42.589Z,1002.71
2016-12-12T05:14:42.620Z,1002.66
2016-12-12T05:15:42.642Z,1002.67
2016-12-12T05:16:42.674Z,1002.67
2016-12-12T05:17:42.700Z,1002.67
2016-12-12T05:18:42.729Z,1002.65
2016-12-12T05:19:42.749Z,1002.67
2016-12-12T05:20:42.778Z,1002.63
2016-12-12T05:21:42.807Z,1002.66
2016-12-12T05:22:42.832Z,1002.64
2016-12-12T05:23:42.864Z,1002.63
2016-12-12T05:24:42.893Z,1002.63
2016-12-12T05:25:42.918Z,1002.62
2016-12-12T05:26:42.947Z,1002.59
2016-12-12T05:27:42.975Z,1002.56
2016-12-12T05:28:42.996Z,1002.62
2016-12-12T05:29:43.029Z,1002.64
2016-12-12T05:30:43.054Z,1002.64
2016-12-12T05:31:43.078Z,1002.68
2016-12-12T05:32:43.111Z,1002.68
2016-12-12T05:33:43.137Z,1002.61
2016-12-12T05:34:43.160Z,1002.66
2016-12-12T05:35:43.189Z,1002.69
2016-12-12T05:36:43.215Z,1002.69
2016-12-12T05:37:43.243Z,1002.71
2016-12-12T05:38:43.271Z,1002.71
2016-12-12T05:39:43.300Z,1002.74
2016-12-12T05:40:43.331Z,1002.79
2016-12-12T05:41:43.350Z,1002.76
2016-12-12T05:42:43.378Z,1002.75
2016-12-12T05:43:43.411Z,1002.82
2016-12-12T05:44:43.436Z,1002.85
2016-12-12T05:45:43.461Z,1002.81
2016-12-12T05:46:43.489Z,1002.82
2016-12-12T05:47:43.518Z,1002.84
2016-12-12T05:48:43.547Z,1002.83
2016-12-12T05:49:43.571Z,1002.84
2016-12-12T05:50:43.599Z,1002.87
2016-12-12T05:51:43.630Z,1002.87
2016-12-12T05:52:43.658Z,1002.92
2016-12-12T05:53:43.685Z,1002.86
2016-12-12T05:54:43.708Z,1002.88
2016-12-12T05:55:43.736Z,1002.84
2016-12-12T05:56:43.765Z,1002.87
2016-12-12T05:57:43.790Z,1002.85
2016-12-12T05:58:43.815Z,1002.82
2016-12-12T05:59:43.840Z,1002.83
2016-12-12T06:00:43.869Z,1002.88
2016-12-12T06:01:43.901Z,1002.92
2016-12-12T06:02:43.930Z,1002.93
2016-12-12T06:03:43.950Z,1002.93
2016-12-12T06:04:43.979Z,1002.93
2016-12-12T06:05:44.008Z,1002.89
2016-12-12T06:06:44.036Z,1002.94
2016-12-12T06:07:44.062Z,1002.94
2016-12-12T06:08:44.090Z,1002.94
2016-12-12T06:09:44.120Z,1002.95
2016-12-12T06:10:44.146Z,1002.96
2016-12-12T06:11:44.173Z,1002.93
2016-12-12T06:12:44.205Z,1002.97
2016-12-12T06:13:44.226Z,1002.96
2016-12-12T06:14:44.258Z,1003.03
2016-12-12T06:15:44.288Z,1002.98
2016-12-12T06:16:44.312Z,1003.03
2016-12-12T06:17:44.337Z,1003.02
2016-12-12T06:18:44.370Z,1003.05
2016-12-12T06:19:44.399Z,1003.04
2016-12-12T06:20:44.422Z,1003.04
2016-12-12T06:21:44.448Z,1003.05
2016-12-12T06:22:44.477Z,1003.05
2016-12-12T06:23:44.526Z,1003.06
2016-12-12T06:24:44.530Z,1003.1
2016-12-12T06:25:44.559Z,1003.12
2016-12-12T06:26:44.581Z,1003.09
2016-12-12T06:27:44.617Z,1003.12
2016-12-12T06:28:44.646Z,1003.11
2016-12-12T06:29:44.670Z,1003.13
2016-12-12T06:30:44.697Z,1003.14
2016-12-12T06:31:44.725Z,1003.11
2016-12-12T06:32:44.757Z,1003.18
2016-12-12T06:33:44.781Z,1003.14
2016-12-12T06:34:44.810Z,1003.17
2016-12-12T06:35:44.837Z,1003.18
2016-12-12T06:36:44.859Z,1003.24
2016-12-12T06:37:44.888Z,1003.24
2016-12-12T06:38:44.921Z,1003.27
2016-12-12T06:39:44.946Z,1003.27
2016-12-12T06:40:44.977Z,1003.27
2016-12-12T06:41:45.003Z,1003.28
2016-12-12T06:42:45.023Z,1003.24
2016-12-12T06:43:45.052Z,1003.24
2016-12-12T06:44:45.081Z,1003.2
2016-12-12T06:45:45.112Z,1003.22
2016-12-12T06:46:45.140Z,1003.2
2016-12-12T06:47:45.168Z,1003.17
2016-12-12T06:48:45.196Z,1003.14
2016-12-12T06:49:45.225Z,1003.14
2016-12-12T06:50:45.251Z,1003.14
2016-12-12T06:51:45.274Z,1003.18
2016-12-12T06:52:45.302Z,1003.15
2016-12-12T06:53:45.331Z,1003.14
2016-12-12T06:54:45.360Z,1003.16
2016-12-12T06:55:45.385Z,1003.18
2016-12-12T06:56:45.413Z,1003.21
2016-12-12T06:57:45.438Z,1003.14
2016-12-12T06:58:45.476Z,1003.16
2016-12-12T06:59:45.502Z,1003.14
2016-12-12T07:00:45.527Z,1003.16
2016-12-12T07:01:45.553Z,1003.18
2016-12-12T07:02:45.578Z,1003.19
2016-12-12T07:03:45.606Z,1003.22
2016-12-12T07:04:45.635Z,1003.23
2016-12-12T07:05:45.664Z,1003.26
2016-12-12T07:06:45.693Z,1003.22
2016-12-12T07:07:45.721Z,1003.25
2016-12-12T07:08:45.747Z,1003.28
2016-12-12T07:09:45.780Z,1003.28
2016-12-12T07:10:45.804Z,1003.3
2016-12-12T07:11:45.828Z,1003.27
2016-12-12T07:12:45.862Z,1003.31
2016-12-12T07:13:45.889Z,1003.23
2016-12-12T07:14:45.919Z,1003.27
2016-12-12T07:15:45.944Z,1003.26
2016-12-12T07:16:45.969Z,1003.28
2016-12-12T07:17:45.998Z,1003.28
2016-12-12T07:18:46.025Z,1003.33
2016-12-12T07:19:46.051Z,1003.32
2016-12-12T07:20:46.084Z,1003.31
2016-12-12T07:21:46.109Z,1003.33
2016-12-12T07:22:46.133Z,1003.31
2016-12-12T07:23:46.162Z,1003.32
2016-12-12T07:24:46.192Z,1003.35
2016-12-12T07:25:46.220Z,1003.31
2016-12-12T07:26:46.249Z,1003.34
2016-12-12T07:27:46.273Z,1003.35
2016-12-12T07:28:46.302Z,1003.39
2016-12-12T07:29:46.337Z,1003.4
2016-12-12T07:30:46.361Z,1003.43
2016-12-12T07:31:46.385Z,1003.45
2016-12-12T07:32:46.412Z,1003.44
2016-12-12T07:33:46.442Z,1003.48
2016-12-12T07:34:46.471Z,1003.49
2016-12-12T07:35:46.500Z,1003.5
2016-12-12T07:36:46.528Z,1003.47
2016-12-12T07:37:46.557Z,1003.52
2016-12-12T07:38:46.582Z,1003.5
2016-12-12T07:39:46.611Z,1003.48
2016-12-12T07:40:46.639Z,1003.5
2016-12-12T07:41:46.669Z,1003.51
2016-12-12T07:42:46.697Z,1003.51
2016-12-12T07:43:46.726Z,1003.52
2016-12-12T07:44:46.744Z,1003.54
2016-12-12T07:45:46.772Z,1003.57
2016-12-12T07:46:46.808Z,1003.59
2016-12-12T07:47:46.832Z,1003.64
2016-12-12T07:48:46.865Z,1003.64
2016-12-12T07:49:46.886Z,1003.69
2016-12-12T07:50:46.919Z,1003.66
2016-12-12T07:51:46.948Z,1003.67
2016-12-12T07:52:46.977Z,1003.69
2016-12-12T07:53:47.002Z,1003.69
2016-12-12T07:54:47.031Z,1003.74
2016-12-12T07:55:47.060Z,1003.69
2016-12-12T07:56:47.088Z,1003.73
2016-12-12T07:57:47.112Z,1003.7
2016-12-12T07:58:47.143Z,1003.73
2016-12-12T07:59:47.170Z,1003.72
2016-12-12T08:00:47.195Z,1003.77
2016-12-12T08:01:47.223Z,1003.76
2016-12-12T08:02:47.256Z,1003.77
2016-12-12T08:03:47.281Z,1003.79
2016-12-12T08:04:47.310Z,1003.78
2016-12-12T08:05:47.339Z,1003.78
2016-12-12T08:06:47.367Z,1003.8
2016-12-12T08:07:47.392Z,1003.8
2016-12-12T08:08:47.420Z,1003.79
2016-12-12T08:09:47.445Z,1003.81
2016-12-12T08:10:47.474Z,1003.84
2016-12-12T08:11:47.503Z,1003.84
2016-12-12T08:12:47.528Z,1003.84
2016-12-12T08:13:47.557Z,1003.85
2016-12-12T08:14:47.589Z,1003.91
2016-12-12T08:15:47.615Z,1003.89
2016-12-12T08:16:47.647Z,1003.89
2016-12-12T08:17:47.676Z,1003.89
2016-12-12T08:18:47.698Z,1003.9
2016-12-12T08:19:47.725Z,1003.91
2016-12-12T08:20:47.749Z,1003.93
2016-12-12T08:21:47.787Z,1003.88
2016-12-12T08:22:47.811Z,1003.93
2016-12-12T08:23:47.840Z,1003.88
2016-12-12T08:24:47.869Z,1003.92
2016-12-12T08:25:47.894Z,1003.9
2016-12-12T08:26:47.927Z,1003.93
2016-12-12T08:27:47.955Z,1003.9
2016-12-12T08:28:47.984Z,1003.91
2016-12-12T08:29:48.006Z,1003.95
2016-12-12T08:30:48.034Z,1003.96
2016-12-12T08:31:48.062Z,1003.96
2016-12-12T08:32:48.090Z,1003.98
2016-12-12T08:33:48.120Z,1003.98
2016-12-12T08:34:48.151Z,1003.99
2016-12-12T08:35:48.173Z,1004
2016-12-12T08:36:48.200Z,1004
2016-12-12T08:37:48.230Z,1004
2016-12-12T08:38:48.259Z,1004.01
2016-12-12T08:39:48.284Z,1004.01
2016-12-12T08:40:48.308Z,1004
2016-12-12T08:41:48.346Z,1004
2016-12-12T08:42:48.374Z,1004.03
2016-12-12T08:43:48.398Z,1004
2016-12-12T08:44:48.424Z,1004.03
2016-12-12T08:45:48.456Z,1004.03
2016-12-12T08:46:48.481Z,1004.05
2016-12-12T08:47:48.509Z,1004.04
2016-12-12T08:48:48.542Z,1004.02
2016-12-12T08:49:48.565Z,1004.01
2016-12-12T08:50:48.591Z,1004.02
2016-12-12T08:51:48.621Z,1004.01
2016-12-12T08:53:57.267Z,1004.05
2016-12-12T08:54:57.291Z,1004.05
2016-12-12T08:55:57.320Z,1004.09
2016-12-12T08:56:57.344Z,1004.12
2016-12-12T08:57:57.373Z,1004.11
2016-12-12T08:58:57.398Z,1004.1
2016-12-12T08:59:57.431Z,1004.11
2016-12-12T09:00:57.459Z,1004.11
2016-12-12T09:01:57.484Z,1004.15
2016-12-12T09:02:57.509Z,1004.14
2016-12-12T09:03:57.542Z,1004.15
2016-12-12T09:04:57.570Z,1004.15
2016-12-12T09:05:57.595Z,1004.15
2016-12-12T09:06:57.627Z,1004.19
2016-12-12T09:07:57.652Z,1004.18
2016-12-12T09:08:57.681Z,1004.25
2016-12-12T09:09:57.710Z,1004.21
2016-12-12T09:10:57.734Z,1004.29
2016-12-12T09:11:57.759Z,1004.28
2016-12-12T09:12:57.792Z,1004.23
2016-12-12T09:13:57.821Z,1004.27
2016-12-12T09:14:57.849Z,1004.25
2016-12-12T09:15:57.874Z,1004.25
2016-12-12T09:16:57.898Z,1004.26
2016-12-12T09:17:57.932Z,1004.25
2016-12-12T09:18:57.960Z,1004.23
2016-12-12T09:19:57.985Z,1004.26
2016-12-12T09:20:58.010Z,1004.27
2016-12-12T09:21:58.043Z,1004.28
2016-12-12T09:22:58.071Z,1004.33
2016-12-12T09:23:58.091Z,1004.33
2016-12-12T09:24:58.120Z,1004.34
2016-12-12T09:25:58.147Z,1004.34
2016-12-12T09:26:58.182Z,1004.33
2016-12-12T09:27:58.211Z,1004.31
2016-12-12T09:28:58.235Z,1004.35
2016-12-12T09:29:58.261Z,1004.34
2016-12-12T09:30:58.289Z,1004.36
2016-12-12T09:31:58.322Z,1004.36
2016-12-12T09:32:58.342Z,1004.35
2016-12-12T09:33:58.375Z,1004.38
2016-12-12T09:34:58.400Z,1004.37
2016-12-12T09:35:58.428Z,1004.36
2016-12-12T09:36:58.461Z,1004.36
2016-12-12T09:37:58.487Z,1004.4
2016-12-12T09:38:58.515Z,1004.4
2016-12-12T09:39:58.541Z,1004.41
2016-12-12T09:40:58.568Z,1004.45
2016-12-12T09:41:58.592Z,1004.38
2016-12-12T09:42:58.621Z,1004.42
2016-12-12T09:43:58.655Z,1004.41
2016-12-12T09:44:58.675Z,1004.41
2016-12-12T09:45:58.708Z,1004.43
2016-12-12T09:46:58.737Z,1004.41
2016-12-12T09:47:58.765Z,1004.43
2016-12-12T09:48:58.794Z,1004.38
2016-12-12T09:49:58.817Z,1004.44
2016-12-12T09:50:58.844Z,1004.36
2016-12-12T09:51:58.872Z,1004.39
2016-12-12T09:52:58.901Z,1004.37
2016-12-12T09:53:58.925Z,1004.37
2016-12-12T09:54:58.955Z,1004.37
2016-12-12T09:55:58.983Z,1004.39
2016-12-12T09:56:59.016Z,1004.37
2016-12-12T09:57:59.041Z,1004.39
2016-12-12T09:58:59.069Z,1004.41
2016-12-12T09:59:59.093Z,1004.39
2016-12-12T10:00:59.123Z,1004.44
2016-12-12T10:01:59.151Z,1004.45
2016-12-12T10:02:59.180Z,1004.44
2016-12-12T10:03:59.208Z,1004.43
2016-12-12T10:04:59.234Z,1004.39
2016-12-12T10:05:59.258Z,1004.4
2016-12-12T10:06:59.292Z,1004.4
2016-12-12T10:07:59.316Z,1004.42
2016-12-12T10:08:59.340Z,1004.41
2016-12-12T10:09:59.369Z,1004.36
2016-12-12T10:10:59.396Z,1004.37
2016-12-12T10:11:59.434Z,1004.38
2016-12-12T10:12:59.459Z,1004.37
2016-12-12T10:13:59.484Z,1004.38
2016-12-12T10:14:59.512Z,1004.34
2016-12-12T10:15:59.542Z,1004.34
2016-12-12T10:16:59.565Z,1004.37
2016-12-12T10:17:59.591Z,1004.34
2016-12-12T10:18:59.623Z,1004.29
2016-12-12T10:19:59.652Z,1004.32
2016-12-12T10:20:59.672Z,1004.3
2016-12-12T10:21:59.704Z,1004.27
2016-12-12T10:22:59.738Z,1004.27
2016-12-12T10:23:59.764Z,1004.26
2016-12-12T10:24:59.787Z,1004.3
2016-12-12T10:25:59.813Z,1004.25
2016-12-12T10:26:59.845Z,1004.32
2016-12-12T10:27:59.870Z,1004.3
2016-12-12T10:28:59.903Z,1004.32
2016-12-12T10:29:59.923Z,1004.28
2016-12-12T10:30:59.956Z,1004.33
2016-12-12T10:31:59.985Z,1004.29
2016-12-12T10:33:00.014Z,1004.27
2016-12-12T10:34:00.034Z,1004.31
2016-12-12T10:35:00.065Z,1004.33
2016-12-12T10:36:00.092Z,1004.29
2016-12-12T10:37:00.124Z,1004.33
2016-12-12T10:38:00.149Z,1004.33
2016-12-12T10:39:00.178Z,1004.34
2016-12-12T10:40:00.206Z,1004.33
2016-12-12T10:41:00.236Z,1004.34
2016-12-12T10:42:00.256Z,1004.3
2016-12-12T10:43:00.286Z,1004.35
2016-12-12T10:44:00.313Z,1004.35
2016-12-12T10:45:00.343Z,1004.34
2016-12-12T10:46:00.367Z,1004.32
2016-12-12T10:47:00.401Z,1004.33
2016-12-12T10:48:00.428Z,1004.34
2016-12-12T10:49:00.457Z,1004.3
2016-12-12T10:50:00.478Z,1004.32
2016-12-12T10:51:00.507Z,1004.33
2016-12-12T10:52:00.540Z,1004.3
2016-12-12T10:53:00.568Z,1004.3
2016-12-12T10:54:00.588Z,1004.29
2016-12-12T10:55:00.624Z,1004.3
2016-12-12T10:56:00.650Z,1004.31
2016-12-12T10:57:00.679Z,1004.3
2016-12-12T10:58:00.704Z,1004.27
2016-12-12T10:59:00.732Z,1004.29
2016-12-12T11:00:00.773Z,1004.26
2016-12-12T11:01:00.791Z,1004.25
2016-12-12T11:02:00.811Z,1004.29
2016-12-12T11:03:00.843Z,1004.26
2016-12-12T11:04:00.872Z,1004.24
2016-12-12T11:05:00.893Z,1004.23
2016-12-12T11:06:00.925Z,1004.26
2016-12-12T11:07:00.951Z,1004.27
2016-12-12T11:08:00.978Z,1004.25
2016-12-12T11:09:01.003Z,1004.24
2016-12-12T11:10:01.032Z,1004.24
2016-12-12T11:11:01.064Z,1004.28
2016-12-12T11:12:01.093Z,1004.25
2016-12-12T11:13:01.114Z,1004.25
2016-12-12T11:14:01.146Z,1004.22
2016-12-12T11:15:01.175Z,1004.23
2016-12-12T11:16:01.200Z,1004.21
2016-12-12T11:17:01.228Z,1004.23
2016-12-12T11:18:01.253Z,1004.23
2016-12-12T11:19:01.282Z,1004.27
2016-12-12T11:20:01.307Z,1004.23
2016-12-12T11:21:01.340Z,1004.17
2016-12-12T11:22:01.368Z,1004.19
2016-12-12T11:23:01.397Z,1004.16
2016-12-12T11:24:01.417Z,1004.13
2016-12-12T11:25:01.447Z,1004.17
2016-12-12T11:26:01.479Z,1004.19
2016-12-12T11:27:01.508Z,1004.16
2016-12-12T11:28:01.528Z,1004.22
2016-12-12T11:29:01.561Z,1004.18
2016-12-12T11:30:01.590Z,1004.15
2016-12-12T11:31:01.617Z,1004.17
2016-12-12T11:32:01.639Z,1004.17
2016-12-12T11:33:01.668Z,1004.13
2016-12-12T11:34:01.701Z,1004.13
2016-12-12T11:35:01.725Z,1004.1
2016-12-12T11:36:01.754Z,1004.09
2016-12-12T11:37:01.779Z,1004.11
2016-12-12T11:38:01.812Z,1004.08
2016-12-12T11:39:01.836Z,1004.1
2016-12-12T11:40:01.865Z,1004.08
2016-12-12T11:41:01.889Z,1004.07
2016-12-12T11:42:01.914Z,1004.06
2016-12-12T11:43:01.946Z,1004.09
2016-12-12T11:44:01.976Z,1004.01
2016-12-12T11:45:02.001Z,1004.06
2016-12-12T11:46:02.029Z,1004.01
2016-12-12T11:47:02.058Z,1004.03
2016-12-12T11:48:02.083Z,1004
2016-12-12T11:49:02.115Z,1003.95
2016-12-12T11:50:02.140Z,1004.03
2016-12-12T11:51:02.164Z,1003.98
2016-12-12T11:52:02.197Z,1003.96
2016-12-12T11:53:02.222Z,1003.96
2016-12-12T11:54:02.251Z,1003.97
2016-12-12T11:55:02.281Z,1003.95
2016-12-12T11:56:02.308Z,1003.96
2016-12-12T11:57:02.333Z,1004.05
2016-12-12T11:58:02.361Z,1004.03
2016-12-12T11:59:02.386Z,1004.05
2016-12-12T12:00:02.414Z,1004.04
2016-12-12T12:01:02.444Z,1004.05
2016-12-12T12:02:02.472Z,1004.08
2016-12-12T12:03:02.503Z,1004.11
2016-12-12T12:04:02.529Z,1004.07
2016-12-12T12:05:02.555Z,1004.06
2016-12-12T12:06:02.579Z,1004.04
2016-12-12T12:07:02.612Z,1004.02
2016-12-12T12:08:02.636Z,1004
2016-12-12T12:09:02.666Z,1003.92
2016-12-12T12:10:02.694Z,1003.97